createdAt,value
2019-03-26T00:01:54.469Z,10.00
2019-03-26T00:04:22.882Z,8.70
2019-03-26T00:06:51.332Z,7.93
2019-03-26T00:09:19.783Z,9.00
2019-03-26T00:11:48.314Z,7.63
2019-03-26T00:14:16.808Z,7.43
2019-03-26T00:16:45.234Z,6.83
2019-03-26T00:19:13.658Z,9.20
2019-03-26T00:21:42.120Z,7.27
2019-03-26T00:24:10.556Z,7.63
2019-03-26T00:26:39.009Z,8.10
2019-03-26T00:29:07.449Z,6.97
2019-03-26T00:31:35.886Z,10.67
2019-03-26T00:34:04.346Z,7.87
2019-03-26T00:36:32.788Z,8.63
2019-03-26T00:39:01.227Z,7.73
2019-03-26T00:41:29.666Z,7.77
2019-03-26T00:43:58.101Z,7.73
2019-03-26T00:46:26.529Z,9.50
2019-03-26T00:48:54.985Z,10.63
2019-03-26T00:51:23.425Z,8.50
2019-03-26T00:53:51.874Z,9.27
2019-03-26T00:56:20.294Z,8.80
2019-03-26T00:58:48.747Z,11.83
2019-03-26T01:01:17.240Z,8.60
2019-03-26T01:03:45.693Z,7.77
2019-03-26T01:06:14.123Z,8.87
2019-03-26T01:08:42.572Z,10.17
2019-03-26T01:11:11.006Z,10.90
2019-03-26T01:13:39.465Z,10.67
2019-03-26T01:16:07.891Z,11.20
2019-03-26T01:18:36.351Z,10.77
2019-03-26T01:21:04.789Z,11.20
2019-03-26T01:23:33.243Z,10.27
2019-03-26T01:26:01.748Z,11.00
2019-03-26T01:28:30.194Z,10.43
2019-03-26T01:30:58.635Z,10.03
2019-03-26T01:33:27.087Z,10.67
2019-03-26T01:35:55.548Z,12.80
2019-03-26T01:38:24.000Z,9.63
2019-03-26T01:40:52.437Z,11.87
2019-03-26T01:43:20.890Z,12.13
2019-03-26T01:45:49.326Z,9.27
2019-03-26T01:48:17.778Z,10.40
2019-03-26T01:50:46.205Z,9.43
2019-03-26T01:53:14.672Z,11.63
2019-03-26T01:55:43.113Z,10.43
2019-03-26T01:58:11.574Z,13.03
2019-03-26T02:00:40.013Z,10.87
2019-03-26T02:03:08.466Z,10.20
2019-03-26T02:05:36.928Z,10.27
2019-03-26T02:08:05.382Z,10.33
2019-03-26T02:10:33.832Z,11.60
2019-03-26T02:13:02.364Z,10.07
2019-03-26T02:15:31.937Z,11.63
2019-03-26T02:18:00.526Z,10.07
2019-03-26T02:20:29.074Z,12.17
2019-03-26T02:22:57.569Z,12.97
2019-03-26T02:25:26.027Z,13.07
2019-03-26T02:27:54.477Z,14.33
2019-03-26T02:30:22.946Z,15.10
2019-03-26T02:32:51.451Z,12.97
2019-03-26T02:35:19.905Z,10.97
2019-03-26T02:37:48.352Z,14.23
2019-03-26T02:40:16.797Z,12.77
2019-03-26T02:42:45.257Z,13.40
2019-03-26T02:45:13.720Z,11.00
2019-03-26T02:47:42.150Z,12.10
2019-03-26T02:50:11.375Z,12.93
2019-03-26T02:52:39.838Z,12.60
2019-03-26T02:55:08.670Z,14.47
2019-03-26T02:57:37.166Z,13.03
2019-03-26T03:00:07.479Z,16.47
2019-03-26T03:02:35.919Z,12.47
2019-03-26T03:05:04.831Z,14.17
2019-03-26T03:07:33.325Z,14.27
2019-03-26T03:10:01.872Z,12.40
2019-03-26T03:12:30.389Z,9.80
2019-03-26T03:14:58.862Z,10.50
2019-03-26T03:17:27.297Z,10.57
2019-03-26T03:19:55.754Z,11.37
2019-03-26T03:22:24.200Z,13.33
2019-03-26T03:24:52.643Z,9.63
2019-03-26T03:27:21.082Z,10.50
2019-03-26T03:29:49.704Z,10.07
2019-03-26T03:32:18.223Z,9.80
2019-03-26T03:34:46.675Z,9.77
2019-03-26T03:37:15.181Z,7.80
2019-03-26T03:39:43.647Z,13.33
2019-03-26T03:42:12.170Z,9.70
2019-03-26T03:44:40.737Z,9.30
2019-03-26T03:47:09.845Z,10.57
2019-03-26T03:49:38.443Z,8.80
2019-03-26T03:52:07.307Z,8.87
2019-03-26T03:54:38.850Z,8.87
2019-03-26T03:57:07.457Z,11.47
2019-03-26T03:59:36.109Z,13.23
2019-03-26T04:02:04.610Z,7.77
2019-03-26T04:04:33.042Z,8.83
2019-03-26T04:07:01.516Z,10.97
2019-03-26T04:09:29.962Z,10.03
2019-03-26T04:11:58.482Z,6.63
2019-03-26T04:14:26.921Z,8.97
2019-03-26T04:16:55.445Z,9.83
2019-03-26T04:19:23.880Z,8.47
2019-03-26T04:21:52.341Z,6.87
2019-03-26T04:24:20.773Z,11.90
2019-03-26T04:26:49.231Z,10.47
2019-03-26T04:29:17.670Z,9.43
2019-03-26T04:31:46.119Z,7.27
2019-03-26T04:34:14.734Z,7.33
2019-03-26T04:36:43.195Z,7.03
2019-03-26T04:39:11.631Z,10.10
2019-03-26T04:41:40.102Z,9.93
2019-03-26T04:44:08.545Z,10.70
2019-03-26T04:46:37.000Z,9.20
2019-03-26T04:49:05.418Z,8.17
2019-03-26T04:51:33.843Z,8.33
2019-03-26T04:54:02.299Z,9.37
2019-03-26T04:56:30.750Z,11.50
2019-03-26T04:58:59.206Z,11.87
2019-03-26T05:01:27.655Z,11.13
2019-03-26T05:03:56.135Z,11.20
2019-03-26T05:06:37.187Z,14.27
2019-03-26T05:08:54.746Z,12.90
2019-03-26T05:11:23.185Z,11.53
2019-03-26T05:13:51.643Z,17.37
2019-03-26T05:16:20.071Z,13.23
2019-03-26T05:18:48.529Z,12.73
2019-03-26T05:21:17.056Z,12.90
2019-03-26T05:23:45.516Z,14.23
2019-03-26T05:26:13.986Z,17.37
2019-03-26T05:28:42.451Z,15.60
2019-03-26T05:31:10.876Z,16.93
2019-03-26T05:33:39.311Z,15.47
2019-03-26T05:36:07.749Z,18.50
2019-03-26T05:38:36.203Z,17.00
2019-03-26T05:41:04.642Z,17.73
2019-03-26T05:43:33.096Z,19.20
2019-03-26T05:46:01.555Z,24.07
2019-03-26T05:48:30.015Z,22.93
2019-03-26T05:50:58.446Z,20.57
2019-03-26T05:53:26.922Z,17.83
2019-03-26T05:55:55.369Z,20.10
2019-03-26T05:58:23.868Z,16.53
2019-03-26T06:00:52.362Z,21.43
2019-03-26T06:03:20.825Z,24.97
2019-03-26T06:05:49.256Z,18.77
2019-03-26T06:08:17.705Z,23.80
2019-03-26T06:10:46.148Z,17.00
2019-03-26T06:13:14.597Z,17.43
2019-03-26T06:15:43.029Z,19.73
2019-03-26T06:18:11.496Z,17.00
2019-03-26T06:20:39.930Z,16.70
2019-03-26T06:23:08.384Z,16.37
2019-03-26T06:25:36.830Z,19.33
2019-03-26T06:28:05.274Z,16.60
2019-03-26T06:30:33.710Z,17.53
2019-03-26T06:33:02.183Z,14.83
2019-03-26T06:35:30.619Z,17.17
2019-03-26T06:37:59.069Z,15.63
2019-03-26T06:40:27.507Z,14.97
2019-03-26T06:42:55.987Z,15.63
2019-03-26T06:45:24.421Z,18.30
2019-03-26T06:47:52.849Z,18.90
2019-03-26T06:50:21.313Z,14.80
2019-03-26T06:52:49.737Z,18.33
2019-03-26T06:55:18.193Z,24.93
2019-03-26T06:57:46.647Z,18.87
2019-03-26T07:00:16.899Z,18.53
2019-03-26T07:02:45.331Z,18.20
2019-03-26T07:05:13.859Z,21.43
2019-03-26T07:07:42.322Z,15.00
2019-03-26T07:10:12.120Z,16.67
2019-03-26T07:12:40.576Z,15.60
2019-03-26T07:15:10.131Z,11.90
2019-03-26T07:17:38.569Z,13.43
2019-03-26T07:20:08.342Z,14.23
2019-03-26T07:22:36.772Z,14.50
2019-03-26T07:25:07.658Z,16.70
2019-03-26T07:27:36.651Z,17.30
2019-03-26T07:30:07.904Z,13.10
2019-03-26T07:32:36.334Z,11.03
2019-03-26T07:35:06.830Z,14.93
2019-03-26T07:37:45.132Z,13.60
2019-03-26T07:40:07.199Z,10.77
2019-03-26T07:42:35.661Z,13.30
2019-03-26T07:45:06.603Z,8.07
2019-03-26T07:47:35.081Z,13.97
2019-03-26T07:50:04.662Z,13.13
2019-03-26T07:52:33.106Z,11.70
2019-03-26T07:55:01.555Z,10.30
2019-03-26T07:57:30.071Z,12.00
2019-03-26T07:59:58.528Z,9.00
2019-03-26T08:02:26.964Z,11.97
2019-03-26T08:04:55.410Z,11.23
2019-03-26T08:07:23.846Z,13.30
2019-03-26T08:09:52.316Z,11.83
2019-03-26T08:12:20.767Z,11.87
2019-03-26T08:14:49.291Z,9.47
2019-03-26T08:17:17.725Z,14.23
2019-03-26T08:19:46.325Z,15.83
2019-03-26T08:22:14.764Z,15.57
2019-03-26T08:24:43.215Z,13.13
2019-03-26T08:27:11.658Z,10.73
2019-03-26T08:29:40.120Z,13.40
2019-03-26T08:32:08.558Z,11.37
2019-03-26T08:34:37.017Z,18.50
2019-03-26T08:37:05.458Z,12.03
2019-03-26T08:39:33.907Z,9.20
2019-03-26T08:42:02.354Z,14.37
2019-03-26T08:44:30.811Z,10.73
2019-03-26T08:46:59.249Z,10.73
2019-03-26T08:49:30.804Z,11.57
2019-03-26T08:51:57.859Z,9.80
2019-03-26T08:54:26.376Z,12.97
2019-03-26T08:56:54.818Z,10.70
2019-03-26T08:59:23.291Z,12.33
2019-03-26T09:01:51.722Z,10.63
2019-03-26T09:04:20.178Z,9.37
2019-03-26T09:06:48.612Z,9.67
2019-03-26T09:09:17.037Z,7.57
2019-03-26T09:11:45.497Z,8.77
2019-03-26T09:14:13.928Z,7.77
2019-03-26T09:16:42.379Z,9.97
2019-03-26T09:19:10.824Z,10.90
2019-03-26T09:21:39.282Z,7.27
2019-03-26T09:24:07.767Z,10.13
2019-03-26T09:26:36.225Z,9.30
2019-03-26T09:29:04.745Z,7.20
2019-03-26T09:31:33.252Z,6.77
2019-03-26T09:34:01.691Z,7.57
2019-03-26T09:36:30.147Z,12.30
2019-03-26T09:38:58.582Z,5.77
2019-03-26T09:41:27.101Z,11.57
2019-03-26T09:43:55.551Z,10.40
2019-03-26T09:46:24.016Z,10.90
2019-03-26T09:48:52.454Z,10.40
2019-03-26T09:51:20.927Z,10.27
2019-03-26T09:53:49.345Z,8.60
2019-03-26T09:56:28.254Z,8.83
2019-03-26T09:58:47.970Z,7.13
2019-03-26T10:01:16.497Z,8.50
2019-03-26T10:03:44.929Z,7.67
2019-03-26T10:06:22.812Z,6.33
2019-03-26T10:08:52.270Z,8.50
2019-03-26T10:11:13.706Z,8.33
2019-03-26T10:13:42.149Z,8.77
2019-03-26T10:16:10.593Z,14.27
2019-03-26T10:18:39.053Z,10.90
2019-03-26T10:21:07.572Z,7.70
2019-03-26T10:23:36.014Z,9.30
2019-03-26T10:26:04.474Z,10.80
2019-03-26T10:28:32.915Z,9.00
2019-03-26T10:31:01.377Z,9.10
2019-03-26T10:33:29.886Z,10.33
2019-03-26T10:35:58.337Z,9.70
2019-03-26T10:38:26.778Z,8.20
2019-03-26T10:40:55.229Z,9.53
2019-03-26T10:43:23.672Z,10.17
2019-03-26T10:45:52.425Z,10.87
2019-03-26T10:48:20.863Z,10.33
2019-03-26T10:50:49.314Z,7.37
2019-03-26T10:53:17.763Z,9.33
2019-03-26T10:55:46.206Z,5.50
2019-03-26T10:58:14.652Z,8.67
2019-03-26T11:00:43.083Z,7.80
2019-03-26T11:03:11.551Z,8.77
2019-03-26T11:05:39.975Z,9.63
2019-03-26T11:08:08.457Z,10.37
2019-03-26T11:10:36.959Z,7.67
2019-03-26T11:13:05.418Z,15.77
2019-03-26T11:15:33.857Z,11.00
2019-03-26T11:18:02.375Z,8.00
2019-03-26T11:20:30.804Z,11.93
2019-03-26T11:22:59.310Z,9.93
2019-03-26T11:25:27.777Z,15.40
2019-03-26T11:27:56.515Z,9.17
2019-03-26T11:30:24.954Z,8.33
2019-03-26T11:32:53.425Z,10.40
2019-03-26T11:35:21.843Z,14.00
2019-03-26T11:37:50.318Z,11.67
2019-03-26T11:40:18.813Z,5.47
2019-03-26T11:42:47.450Z,7.33
2019-03-26T11:45:17.667Z,7.40
2019-03-26T11:47:46.105Z,7.93
2019-03-26T11:50:15.324Z,7.97
2019-03-26T11:52:43.754Z,11.87
2019-03-26T11:55:12.343Z,5.93
2019-03-26T11:57:40.770Z,5.43
2019-03-26T12:00:12.191Z,5.77
2019-03-26T12:02:40.633Z,4.73
2019-03-26T12:05:09.506Z,2.07
2019-03-26T12:07:37.986Z,5.57
2019-03-26T12:10:08.006Z,5.47
2019-03-26T12:12:36.443Z,5.00
2019-03-26T12:15:07.886Z,3.80
2019-03-26T12:17:36.325Z,4.63
2019-03-26T12:20:06.774Z,6.00
2019-03-26T12:22:35.208Z,5.53
2019-03-26T12:25:04.910Z,4.93
2019-03-26T12:27:36.282Z,5.13
2019-03-26T12:30:05.943Z,7.83
2019-03-26T12:32:34.382Z,5.73
2019-03-26T12:35:03.078Z,6.43
2019-03-26T12:37:31.514Z,7.37
2019-03-26T12:40:00.799Z,6.13
2019-03-26T12:42:29.582Z,3.43
2019-03-26T12:44:58.046Z,5.87
2019-03-26T12:47:26.543Z,5.57
2019-03-26T12:49:55.054Z,5.90
2019-03-26T12:52:23.500Z,5.37
2019-03-26T12:54:51.959Z,5.27
2019-03-26T12:57:20.384Z,6.83
2019-03-26T12:59:49.002Z,3.97
2019-03-26T13:02:17.440Z,8.53
2019-03-26T13:04:45.889Z,4.10
2019-03-26T13:07:14.317Z,3.93
2019-03-26T13:09:42.780Z,4.43
2019-03-26T13:12:11.224Z,3.83
2019-03-26T13:14:39.745Z,4.97
2019-03-26T13:17:08.180Z,4.20
2019-03-26T13:19:36.631Z,4.03
2019-03-26T13:22:05.061Z,5.37
2019-03-26T13:24:33.517Z,4.97
2019-03-26T13:27:01.967Z,3.77
2019-03-26T13:29:30.415Z,4.67
2019-03-26T13:31:58.854Z,5.20
2019-03-26T13:34:27.286Z,4.10
2019-03-26T13:36:55.751Z,4.60
2019-03-26T13:39:24.167Z,3.77
2019-03-26T13:41:52.620Z,3.83
2019-03-26T13:44:21.050Z,5.20
2019-03-26T13:46:49.506Z,3.30
2019-03-26T13:49:17.934Z,4.37
2019-03-26T13:51:46.392Z,3.03
2019-03-26T13:54:14.814Z,6.33
2019-03-26T13:56:43.266Z,4.70
2019-03-26T13:59:11.698Z,5.47
2019-03-26T14:01:40.158Z,4.57
2019-03-26T14:04:08.598Z,5.27
2019-03-26T14:06:37.065Z,3.67
2019-03-26T14:09:07.331Z,5.93
2019-03-26T14:11:35.776Z,5.90
2019-03-26T14:14:04.370Z,5.20
2019-03-26T14:16:32.833Z,5.33
2019-03-26T14:19:01.260Z,4.33
2019-03-26T14:21:29.715Z,6.77
2019-03-26T14:23:58.163Z,6.17
2019-03-26T14:26:26.682Z,5.23
2019-03-26T14:28:55.107Z,7.03
2019-03-26T14:31:23.549Z,6.77
2019-03-26T14:33:52.057Z,4.67
2019-03-26T14:36:20.518Z,6.63
2019-03-26T14:38:48.954Z,6.23
2019-03-26T14:41:17.431Z,5.50
2019-03-26T14:43:45.857Z,8.47
2019-03-26T14:46:14.318Z,5.60
2019-03-26T14:48:42.743Z,6.10
2019-03-26T14:51:11.189Z,5.33
2019-03-26T14:53:39.656Z,6.73
2019-03-26T14:56:08.110Z,4.80
2019-03-26T14:58:36.539Z,6.93
2019-03-26T15:01:04.992Z,6.77
2019-03-26T15:03:33.437Z,5.07
2019-03-26T15:06:04.441Z,5.23
2019-03-26T15:08:32.041Z,7.77
2019-03-26T15:11:07.869Z,5.47
2019-03-26T15:13:30.666Z,6.73
2019-03-26T15:15:59.162Z,8.37
2019-03-26T15:18:27.608Z,3.43
2019-03-26T15:20:56.049Z,7.67
2019-03-26T15:23:24.504Z,7.30
2019-03-26T15:25:52.926Z,5.30
2019-03-26T15:28:21.382Z,5.00
2019-03-26T15:30:49.819Z,5.37
2019-03-26T15:33:18.275Z,6.63
2019-03-26T15:35:46.723Z,5.27
2019-03-26T15:38:15.234Z,4.67
2019-03-26T15:40:43.664Z,2.73
2019-03-26T15:43:12.112Z,6.03
2019-03-26T15:45:40.541Z,6.73
2019-03-26T15:48:08.996Z,5.63
2019-03-26T15:50:45.377Z,5.77
2019-03-26T15:53:14.565Z,5.03
2019-03-26T15:55:43.242Z,4.40
2019-03-26T15:58:11.702Z,9.17
2019-03-26T16:00:40.126Z,5.17
2019-03-26T16:03:08.636Z,5.93
2019-03-26T16:05:37.066Z,5.90
2019-03-26T16:08:05.511Z,4.23
2019-03-26T16:10:33.934Z,4.47
2019-03-26T16:13:02.389Z,7.83
2019-03-26T16:15:43.186Z,5.50
2019-03-26T16:18:01.055Z,5.50
2019-03-26T16:20:29.491Z,3.33
2019-03-26T16:22:57.944Z,6.57
2019-03-26T16:25:26.386Z,7.50
2019-03-26T16:27:54.846Z,8.77
2019-03-26T16:30:23.266Z,4.43
2019-03-26T16:32:51.729Z,5.33
2019-03-26T16:35:20.163Z,7.30
2019-03-26T16:37:48.631Z,5.70
2019-03-26T16:40:17.063Z,8.33
2019-03-26T16:42:45.563Z,6.70
2019-03-26T16:45:14.362Z,5.77
2019-03-26T16:47:42.813Z,4.80
2019-03-26T16:50:11.575Z,5.30
2019-03-26T16:52:40.030Z,6.90
2019-03-26T16:55:08.603Z,7.77
2019-03-26T16:57:37.109Z,7.90
2019-03-26T17:00:07.578Z,9.47
2019-03-26T17:02:36.016Z,5.50
2019-03-26T17:05:05.916Z,5.33
2019-03-26T17:07:34.509Z,10.57
2019-03-26T17:10:03.360Z,7.93
2019-03-26T17:12:31.778Z,7.13
2019-03-26T17:15:01.067Z,6.27
2019-03-26T17:17:29.506Z,7.90
2019-03-26T17:19:57.962Z,6.23
2019-03-26T17:22:26.385Z,8.13
2019-03-26T17:24:54.833Z,8.33
2019-03-26T17:27:23.270Z,8.57
2019-03-26T17:29:51.717Z,7.33
2019-03-26T17:32:20.154Z,6.50
2019-03-26T17:34:48.606Z,11.83
2019-03-26T17:37:17.044Z,6.43
2019-03-26T17:39:45.521Z,8.33
2019-03-26T17:42:17.554Z,10.00
2019-03-26T17:44:44.135Z,4.90
2019-03-26T17:47:12.562Z,5.17
2019-03-26T17:49:41.012Z,6.33
2019-03-26T17:52:09.449Z,6.37
2019-03-26T17:54:37.960Z,8.57
2019-03-26T17:57:06.398Z,5.00
2019-03-26T17:59:34.849Z,10.23
2019-03-26T18:02:03.270Z,6.40
2019-03-26T18:04:32.407Z,6.37
2019-03-26T18:07:00.833Z,7.40
2019-03-26T18:09:29.332Z,9.37
2019-03-26T18:11:57.855Z,8.40
2019-03-26T18:14:26.355Z,4.17
2019-03-26T18:16:54.819Z,5.93
2019-03-26T18:19:23.322Z,5.87
2019-03-26T18:21:52.127Z,7.90
2019-03-26T18:24:20.579Z,8.67
2019-03-26T18:26:49.019Z,11.77
2019-03-26T18:29:17.460Z,5.07
2019-03-26T18:31:45.895Z,6.53
2019-03-26T18:34:14.337Z,8.40
2019-03-26T18:36:42.782Z,6.53
2019-03-26T18:39:11.234Z,6.30
2019-03-26T18:41:39.663Z,4.63
2019-03-26T18:44:08.099Z,6.90
2019-03-26T18:46:36.549Z,7.23
2019-03-26T18:49:05.058Z,6.43
2019-03-26T18:51:33.512Z,4.23
2019-03-26T18:54:01.946Z,8.27
2019-03-26T18:56:30.403Z,7.47
2019-03-26T18:58:58.859Z,4.60
2019-03-26T19:01:27.323Z,10.03
2019-03-26T19:03:55.755Z,6.23
2019-03-26T19:06:24.212Z,8.83
2019-03-26T19:08:52.649Z,8.70
2019-03-26T19:11:21.162Z,8.77
2019-03-26T19:13:49.598Z,8.37
2019-03-26T19:16:18.119Z,7.40
2019-03-26T19:18:46.550Z,4.97
2019-03-26T19:21:14.989Z,11.70
2019-03-26T19:23:43.435Z,11.47
2019-03-26T19:26:11.880Z,8.57
2019-03-26T19:28:40.314Z,8.90
2019-03-26T19:31:08.772Z,13.00
2019-03-26T19:33:37.209Z,5.57
2019-03-26T19:36:05.654Z,6.23
2019-03-26T19:38:34.088Z,7.40
2019-03-26T19:41:02.558Z,9.03
2019-03-26T19:43:30.996Z,11.57
2019-03-26T19:46:00.335Z,10.33
2019-03-26T19:48:28.772Z,8.07
2019-03-26T19:50:57.215Z,10.70
2019-03-26T19:53:25.653Z,8.03
2019-03-26T19:55:54.122Z,9.33
2019-03-26T19:58:22.555Z,11.40
2019-03-26T20:00:51.063Z,7.87
2019-03-26T20:03:19.532Z,9.47
2019-03-26T20:05:48.054Z,8.80
2019-03-26T20:08:16.551Z,7.33
2019-03-26T20:10:45.006Z,11.43
2019-03-26T20:13:23.671Z,6.43
2019-03-26T20:15:43.633Z,10.37
2019-03-26T20:18:12.113Z,8.10
2019-03-26T20:20:40.554Z,7.97
2019-03-26T20:23:09.011Z,6.93
2019-03-26T20:25:37.439Z,8.00
2019-03-26T20:28:05.929Z,9.23
2019-03-26T20:30:34.354Z,8.43
2019-03-26T20:33:02.807Z,8.17
2019-03-26T20:35:31.238Z,9.17
2019-03-26T20:37:59.702Z,7.70
2019-03-26T20:40:28.173Z,6.40
2019-03-26T20:42:56.663Z,7.27
2019-03-26T20:45:25.095Z,6.43
2019-03-26T20:47:53.543Z,8.67
2019-03-26T20:50:22.325Z,7.77
2019-03-26T20:52:50.770Z,9.37
2019-03-26T20:55:22.456Z,7.93
2019-03-26T20:57:50.894Z,8.77
2019-03-26T21:00:36.512Z,7.97
2019-03-26T21:03:05.326Z,10.13
2019-03-26T21:05:33.948Z,7.93
2019-03-26T21:08:02.459Z,9.27
2019-03-26T21:10:30.889Z,11.00
2019-03-26T21:12:59.340Z,8.27
2019-03-26T21:15:27.777Z,11.00
2019-03-26T21:17:56.229Z,6.83
2019-03-26T21:20:24.673Z,9.97
2019-03-26T21:22:53.103Z,8.23
2019-03-26T21:25:21.536Z,8.13
2019-03-26T21:27:50.075Z,10.13
2019-03-26T21:30:19.149Z,7.43
2019-03-26T21:32:47.602Z,9.83
2019-03-26T21:35:16.166Z,9.20
2019-03-26T21:37:44.700Z,11.57
2019-03-26T21:40:13.372Z,7.27
2019-03-26T21:42:41.837Z,8.97
2019-03-26T21:45:11.728Z,7.63
2019-03-26T21:47:40.192Z,8.20
2019-03-26T21:50:09.863Z,7.57
2019-03-26T21:52:38.335Z,8.00
2019-03-26T21:55:08.605Z,7.20
2019-03-26T21:57:37.053Z,8.20
2019-03-26T22:00:09.175Z,8.80
2019-03-26T22:02:37.642Z,10.90
2019-03-26T22:05:07.716Z,7.73
2019-03-26T22:07:36.243Z,6.17
2019-03-26T22:10:07.286Z,10.13
2019-03-26T22:12:35.741Z,8.03
2019-03-26T22:15:07.274Z,8.97
2019-03-26T22:17:35.797Z,8.97
2019-03-26T22:20:05.878Z,6.67
2019-03-26T22:22:34.385Z,7.97
2019-03-26T22:25:02.824Z,5.17
2019-03-26T22:27:31.262Z,10.03
2019-03-26T22:29:59.705Z,8.43
2019-03-26T22:32:28.132Z,9.03
2019-03-26T22:34:56.585Z,7.30
2019-03-26T22:37:25.017Z,4.90
2019-03-26T22:39:53.457Z,8.23
2019-03-26T22:42:21.900Z,7.30
2019-03-26T22:44:50.346Z,11.73
2019-03-26T22:47:18.830Z,8.00
2019-03-26T22:49:47.304Z,7.87
2019-03-26T22:52:15.740Z,9.63
2019-03-26T22:54:44.195Z,7.90
2019-03-26T22:57:12.632Z,11.27
2019-03-26T22:59:41.081Z,7.30
2019-03-26T23:02:09.518Z,6.80
2019-03-26T23:04:37.975Z,10.43
2019-03-26T23:07:06.406Z,8.47
2019-03-26T23:09:34.872Z,9.53
2019-03-26T23:12:03.294Z,11.90
2019-03-26T23:14:44.026Z,11.17
2019-03-26T23:17:01.900Z,7.43
2019-03-26T23:19:30.350Z,8.97
2019-03-26T23:21:58.794Z,9.40
2019-03-26T23:24:27.251Z,7.17
2019-03-26T23:26:55.677Z,9.40
2019-03-26T23:29:24.130Z,10.07
2019-03-26T23:31:52.575Z,8.03
2019-03-26T23:34:21.045Z,7.00
2019-03-26T23:36:49.499Z,6.30
2019-03-26T23:39:17.933Z,9.77
2019-03-26T23:41:46.376Z,10.60
2019-03-26T23:44:25.207Z,8.63
2019-03-26T23:46:44.987Z,9.03
2019-03-26T23:49:13.429Z,8.57
2019-03-26T23:51:41.865Z,8.40
2019-03-26T23:54:10.313Z,10.00
2019-03-26T23:56:38.744Z,5.97
2019-03-26T23:59:07.192Z,8.30
